Time;durP1;ratioP1;P1;durP2;ratioP2;P2;SDS_P1;SDS_P2;PMS_P1;PMS_P2;Temp;Humidity;BMP_temperature;BMP_pressure;BME280_temperature;BME280_humidity;BME280_pressure;Samples;Min_cycle;Max_cycle;Signal;HPM_P1;HPM_P2
2022/03/13 09:20:19;;;;;;;7.82;4.05;;;;;;;20.92;29.64;100509.66;12413900;22;1305727;-76
2022/03/13 09:25:11;;;;;;;11.13;4.00;;;;;;;21.04;29.65;100508.28;12499437;22;66110;-76
2022/03/13 09:30:04;;;;;;;8.00;4.90;;;;;;;20.44;23.30;100514.94;12501030;22;66203;-75
2022/03/13 09:34:56;;;;;;;13.30;5.25;;;;;;;20.49;23.57;100512.06;12500570;22;65677;-78
2022/03/13 09:39:50;;;;;;;9.88;5.30;;;;;;;20.13;21.44;100512.00;12491590;22;66123;-78
2022/03/13 09:44:42;;;;;;;8.93;5.50;;;;;;;20.36;21.81;100512.94;12501316;22;66341;-76
2022/03/13 09:49:34;;;;;;;7.95;5.13;;;;;;;20.29;21.37;100512.50;12503131;22;66309;-78
2022/03/13 09:54:26;;;;;;;7.80;4.88;;;;;;;20.48;21.13;100513.19;12501356;22;66411;-75
2022/03/13 09:59:20;;;;;;;10.60;5.50;;;;;;;20.33;20.51;100520.94;12499608;22;65842;-75
2022/03/13 10:04:12;;;;;;;7.47;5.55;;;;;;;20.28;20.00;100508.13;12498517;22;65756;-76
2022/03/13 10:09:24;;;;;;;7.75;5.38;;;;;;;20.22;20.40;100512.09;12500648;22;65806;-75
2022/03/13 10:14:16;;;;;;;7.40;5.30;;;;;;;20.26;20.52;100499.34;12490890;22;66750;-75
2022/03/13 10:19:16;;;;;;;6.10;4.65;;;;;;;20.33;20.01;100502.50;12486717;22;66705;-75
2022/03/13 10:24:14;;;;;;;7.80;5.30;;;;;;;20.53;20.17;100495.72;12486415;22;65871;-76
2022/03/13 10:29:07;;;;;;;6.07;5.47;;;;;;;20.42;20.53;100500.66;12488517;22;65661;-75
2022/03/13 10:34:00;;;;;;;6.68;5.60;;;;;;;20.37;20.14;100481.50;12487064;22;65256;-76
2022/03/13 10:38:53;;;;;;;6.68;5.00;;;;;;;20.34;20.35;100476.63;12486040;22;66602;-77
2022/03/13 10:43:49;;;;;;;7.07;5.70;;;;;;;20.45;20.15;100474.44;12485654;22;65735;-76
2022/03/13 10:48:42;;;;;;;8.52;5.25;;;;;;;20.38;20.16;100476.78;12487837;22;66419;-76
2022/03/13 10:53:41;;;;;;;7.78;5.43;;;;;;;20.31;20.25;100474.44;12488683;22;66491;-75
2022/03/13 10:58:35;;;;;;;6.05;4.88;;;;;;;20.71;21.44;100477.41;12487480;22;65559;-75
2022/03/13 11:03:27;;;;;;;6.38;4.85;;;;;;;20.73;21.47;100472.41;12486124;22;66406;-76
2022/03/13 11:08:19;;;;;;;8.18;4.93;;;;;;;20.82;21.67;100476.03;12486867;22;65781;-80
2022/03/13 11:13:12;;;;;;;10.23;4.75;;;;;;;20.73;22.26;100477.91;12489953;22;65337;-78
2022/03/13 11:18:09;;;;;;;7.10;5.47;;;;;;;20.65;21.75;100467.63;12486331;22;66970;-78
2022/03/13 11:23:08;;;;;;;7.20;4.78;;;;;;;20.68;21.55;100461.47;12489261;22;65326;-78
2022/03/13 11:28:00;;;;;;;6.43;4.78;;;;;;;20.72;21.45;100463.31;12486342;22;65660;-70
2022/03/13 11:32:53;;;;;;;11.02;4.40;;;;;;;21.04;23.13;100447.66;12485293;22;66430;-73
2022/03/13 11:37:47;;;;;;;8.20;5.32;;;;;;;20.94;22.41;100451.47;12476861;22;66325;-73
2022/03/13 11:42:46;;;;;;;7.15;5.65;;;;;;;20.84;21.37;100447.03;12482749;22;64796;-73
2022/03/13 11:47:38;;;;;;;9.00;6.07;;;;;;;20.76;21.26;100438.69;12482052;22;65457;-71
2022/03/13 11:52:32;;;;;;;6.45;5.30;;;;;;;20.74;20.64;100433.53;12483684;22;66268;-71
2022/03/13 11:57:50;;;;;;;6.03;5.47;;;;;;;20.74;20.62;100424.44;12484781;22;66439;-70
2022/03/13 12:02:56;;;;;;;6.75;5.35;;;;;;;20.72;20.82;100408.22;12483269;22;65604;-73
2022/03/13 12:08:05;;;;;;;9.02;5.85;;;;;;;20.34;20.09;100393.19;12485567;22;66224;-77
2022/03/13 12:13:24;;;;;;;7.25;5.70;;;;;;;19.87;20.58;100387.06;12485654;22;65420;-75
2022/03/13 12:18:18;;;;;;;8.02;6.20;;;;;;;20.26;20.79;100380.94;12482845;22;66335;-76
2022/03/13 12:23:10;;;;;;;7.63;5.72;;;;;;;20.37;20.27;100371.38;12483998;22;66571;-75
2022/03/13 12:28:05;;;;;;;8.20;5.82;;;;;;;20.45;20.65;100370.59;12478588;22;66521;-74
2022/03/13 12:33:17;;;;;;;7.78;5.13;;;;;;;20.37;20.35;100363.09;12476455;22;66345;-74
2022/03/13 12:38:15;;;;;;;9.48;6.22;;;;;;;20.31;20.43;100352.47;12480011;22;66556;-68
2022/03/13 12:43:09;;;;;;;6.20;5.57;;;;;;;20.48;20.48;100347.13;12487395;22;66524;-68
2022/03/13 12:48:01;;;;;;;8.18;6.13;;;;;;;20.48;20.15;100345.19;12482302;22;65378;-69
2022/03/13 12:52:57;;;;;;;6.85;5.97;;;;;;;20.51;20.00;100336.31;12482565;22;66603;-68
2022/03/13 12:57:51;;;;;;;7.90;5.97;;;;;;;20.59;20.19;100334.72;12480698;22;66280;-69
2022/03/13 13:02:52;;;;;;;8.18;6.40;;;;;;;20.50;19.91;100326.41;12482710;22;65669;-67
2022/03/13 13:07:44;;;;;;;8.77;6.22;;;;;;;20.65;20.17;100316.94;12480057;22;65684;-68
2022/03/13 13:12:37;;;;;;;7.60;6.05;;;;;;;20.63;20.08;100310.09;12482310;22;66352;-69
2022/03/13 13:17:29;;;;;;;8.85;5.97;;;;;;;20.69;20.69;100306.91;12481691;22;66586;-73
2022/03/13 13:22:27;;;;;;;5.82;4.60;;;;;;;20.73;22.01;100301.56;12480632;22;66242;-73
2022/03/13 13:27:30;;;;;;;5.88;4.88;;;;;;;20.66;22.29;100301.22;12481048;22;66213;-73
2022/03/13 13:32:23;;;;;;;8.23;5.60;;;;;;;20.57;21.41;100297.59;12481571;22;66264;-74
2022/03/13 13:37:15;;;;;;;6.18;5.57;;;;;;;20.52;21.55;100296.63;12481100;22;66316;-69
2022/03/13 13:42:08;;;;;;;9.10;6.18;;;;;;;20.37;21.33;100297.00;12483124;22;65887;-69
2022/03/13 13:47:05;;;;;;;6.85;6.15;;;;;;;20.35;21.40;100284.69;12481266;22;66593;-69
2022/03/13 13:52:10;;;;;;;6.63;5.45;;;;;;;20.45;21.46;100295.44;12483456;22;65275;-69
2022/03/13 13:57:03;;;;;;;8.75;6.47;;;;;;;20.56;21.08;100287.72;12485262;22;66145;-69
2022/03/13 14:02:16;;;;;;;6.75;6.05;;;;;;;20.58;20.68;100286.28;12480988;22;66202;-68
2022/03/13 14:07:08;;;;;;;8.93;6.40;;;;;;;20.57;21.07;100275.56;12483523;22;66505;-72
2022/03/13 14:12:00;;;;;;;7.72;6.57;;;;;;;20.57;21.20;100278.31;12480098;22;65480;-74
2022/03/13 14:16:52;;;;;;;8.85;6.10;;;;;;;20.46;21.37;100270.31;12479428;22;65421;-74
2022/03/13 14:21:47;;;;;;;7.22;6.15;;;;;;;20.58;21.24;100272.50;12481365;22;65402;-74
2022/03/13 14:26:39;;;;;;;9.95;6.97;;;;;;;20.39;21.35;100275.47;12483561;22;65550;-74
2022/03/13 14:31:31;;;;;;;8.15;6.75;;;;;;;20.43;21.66;100272.91;12482932;22;66387;-73
2022/03/13 14:36:23;;;;;;;7.63;6.30;;;;;;;20.52;21.42;100269.06;12483713;22;65549;-73
2022/03/13 14:41:17;;;;;;;8.95;6.68;;;;;;;20.57;21.60;100276.38;12483700;22;66394;-73
2022/03/13 14:46:10;;;;;;;7.55;6.40;;;;;;;20.41;21.62;100272.41;12484353;22;66414;-73
2022/03/13 14:51:02;;;;;;;11.88;6.45;;;;;;;20.34;21.82;100278.34;12484226;22;66269;-74
2022/03/13 14:56:09;;;;;;;7.28;6.47;;;;;;;20.33;22.32;100270.38;12485634;22;65665;-74
2022/03/13 15:01:02;;;;;;;7.00;5.28;;;;;;;20.27;22.90;100271.63;12485351;22;66433;-75
2022/03/13 15:05:54;;;;;;;7.78;5.78;;;;;;;20.31;22.52;100267.13;12485651;22;65911;-74
2022/03/13 15:10:46;;;;;;;5.93;5.32;;;;;;;20.44;23.06;100266.28;12483293;22;66587;-71
2022/03/13 15:15:39;;;;;;;5.93;5.20;;;;;;;20.58;23.09;100267.00;12484214;22;66544;-74
2022/03/13 15:20:32;;;;;;;5.15;4.63;;;;;;;20.57;23.54;100262.59;12483569;22;65810;-74
2022/03/13 15:25:24;;;;;;;6.63;4.43;;;;;;;20.63;23.86;100264.09;12483108;22;65656;-74
2022/03/13 15:30:16;;;;;;;5.07;3.80;;;;;;;20.66;24.12;100265.41;12482786;22;66238;-72
2022/03/13 15:35:09;;;;;;;4.32;3.90;;;;;;;20.61;24.31;100268.28;12482499;22;66302;-71
2022/03/13 15:40:04;;;;;;;4.63;3.97;;;;;;;20.60;24.52;100264.72;12481914;22;65764;-69
2022/03/13 15:44:56;;;;;;;4.53;3.38;;;;;;;20.55;24.69;100253.84;12482979;22;65773;-68
2022/03/13 15:49:49;;;;;;;3.65;3.30;;;;;;;20.53;25.18;100262.41;12481415;22;66593;-73
2022/03/13 15:54:41;;;;;;;7.82;4.72;;;;;;;20.50;25.14;100263.06;12479287;22;66214;-75
2022/03/13 15:59:35;;;;;;;9.65;8.00;;;;;;;20.38;24.50;100260.06;12481787;22;66056;-75
2022/03/13 16:04:27;;;;;;;11.07;7.97;;;;;;;20.33;23.83;100253.84;12482127;22;66426;-73
2022/03/13 16:09:19;;;;;;;8.48;7.10;;;;;;;20.26;23.76;100243.28;12481542;22;66055;-75
2022/03/13 16:14:11;;;;;;;9.95;7.00;;;;;;;20.22;23.88;100247.81;12479616;22;66919;-74
2022/03/13 16:19:06;;;;;;;7.50;6.60;;;;;;;20.20;23.87;100241.81;12480385;22;66253;-77
2022/03/13 16:23:59;;;;;;;9.13;6.60;;;;;;;20.17;23.82;100246.00;12480647;22;66386;-74
2022/03/13 16:28:51;;;;;;;10.40;6.57;;;;;;;20.17;24.38;100251.50;12481671;22;66909;-69
2022/03/13 16:33:43;;;;;;;8.98;6.18;;;;;;;20.27;24.28;100258.69;12484439;22;65812;-72
2022/03/13 16:38:37;;;;;;;8.45;5.63;;;;;;;20.25;24.38;100262.88;12484483;22;65642;-67
2022/03/13 16:43:31;;;;;;;6.07;5.45;;;;;;;20.28;24.35;100259.50;12485071;22;66494;-66
2022/03/13 16:48:23;;;;;;;7.28;5.13;;;;;;;20.30;24.61;100260.81;12482739;22;65560;-67
2022/03/13 16:53:17;;;;;;;7.32;4.88;;;;;;;20.35;24.76;100273.66;12479883;22;66464;-67
2022/03/13 16:58:12;;;;;;;5.93;4.75;;;;;;;20.28;24.87;100273.28;12477511;22;65755;-67
2022/03/13 17:03:04;;;;;;;6.20;4.68;;;;;;;20.30;25.06;100269.09;12483735;22;66467;-67
2022/03/13 17:07:56;;;;;;;12.73;4.80;;;;;;;20.29;25.25;100275.72;12483624;22;66917;-67
2022/03/13 17:12:48;;;;;;;10.13;4.70;;;;;;;20.35;25.42;100276.41;12481269;22;65562;-66
2022/03/13 17:17:42;;;;;;;12.75;4.93;;;;;;;20.38;25.46;100275.78;12481952;22;66442;-70
2022/03/13 17:22:34;;;;;;;8.88;4.38;;;;;;;20.30;25.82;100284.78;12485048;22;66678;-68
2022/03/13 17:27:29;;;;;;;7.78;4.40;;;;;;;20.24;26.00;100289.59;12482548;22;66405;-68
2022/03/13 17:32:25;;;;;;;8.95;4.10;;;;;;;20.24;26.05;100278.56;12485276;22;65171;-68
2022/03/13 17:37:18;;;;;;;13.27;4.53;;;;;;;20.26;26.03;100292.03;12486595;22;67025;-72
2022/03/13 17:42:11;;;;;;;10.88;4.28;;;;;;;20.22;26.18;100294.63;12487339;22;66484;-72
2022/03/13 17:47:03;;;;;;;10.75;4.32;;;;;;;20.24;26.27;100303.34;12487881;22;66302;-72
2022/03/13 17:51:55;;;;;;;6.60;4.25;;;;;;;20.19;26.35;100303.50;12485315;22;67137;-74
2022/03/13 17:56:50;;;;;;;12.93;4.35;;;;;;;20.21;26.35;100304.00;12458934;22;65981;-74
2022/03/13 18:01:42;;;;;;;8.90;4.10;;;;;;;20.28;26.40;100311.81;12486921;22;65756;-74
2022/03/13 18:06:34;;;;;;;8.15;4.35;;;;;;;20.29;26.44;100321.69;12486768;22;65479;-72
2022/03/13 18:11:26;;;;;;;3.97;3.45;;;;;;;20.28;26.42;100326.41;12487067;22;66492;-73
2022/03/13 18:16:19;;;;;;;5.32;4.32;;;;;;;20.27;26.63;100335.78;12486151;22;66408;-72
2022/03/13 18:21:14;;;;;;;5.65;4.03;;;;;;;20.29;26.83;100341.78;12485874;22;66390;-74
2022/03/13 18:26:06;;;;;;;9.10;4.03;;;;;;;20.26;26.74;100342.41;12488986;22;65683;-73
2022/03/13 18:36:09;;;;;;;4.30;3.83;;;;;;;20.24;27.01;100347.41;12480753;22;66175;-73
2022/03/13 18:41:03;;;;;;;5.65;4.05;;;;;;;20.22;27.00;100348.88;12486412;22;66575;-74
2022/03/13 18:45:55;;;;;;;6.90;4.43;;;;;;;20.27;27.03;100355.06;12487217;22;65947;-75
2022/03/13 18:50:50;;;;;;;4.72;3.72;;;;;;;20.26;27.10;100342.41;12486478;22;66449;-73
2022/03/13 18:55:46;;;;;;;6.03;3.88;;;;;;;20.29;27.28;100346.47;12470613;22;66510;-74
2022/03/13 19:00:38;;;;;;;6.90;4.13;;;;;;;20.26;27.48;100358.09;12487231;22;65829;-71
2022/03/13 19:05:31;;;;;;;7.15;4.38;;;;;;;20.25;27.45;100343.53;12486008;22;66395;-74
2022/03/13 19:10:23;;;;;;;5.47;3.90;;;;;;;20.26;27.66;100350.66;12488414;22;66312;-73
2022/03/13 19:15:17;;;;;;;6.38;3.80;;;;;;;20.27;27.58;100354.22;12455035;22;65254;-72
2022/03/13 19:20:09;;;;;;;7.72;4.20;;;;;;;20.28;27.50;100358.63;12487410;22;66319;-72
2022/03/13 19:25:03;;;;;;;7.32;3.95;;;;;;;20.28;27.80;100361.38;12484482;22;65330;-72
2022/03/13 19:29:55;;;;;;;5.22;3.92;;;;;;;20.30;27.67;100368.19;12482097;22;65830;-74
2022/03/13 19:34:49;;;;;;;6.30;3.72;;;;;;;20.30;27.83;100376.47;12456202;22;66253;-73
2022/03/13 19:39:41;;;;;;;4.18;3.70;;;;;;;20.26;27.92;100378.19;12484196;22;66011;-73
2022/03/13 19:44:35;;;;;;;4.72;3.83;;;;;;;20.30;27.99;100375.66;12481393;22;66133;-71
2022/03/13 19:49:27;;;;;;;6.10;3.90;;;;;;;20.31;27.86;100380.81;12483480;22;65697;-74
2022/03/13 19:54:20;;;;;;;5.00;3.83;;;;;;;20.29;28.04;100377.59;12483964;22;66441;-73
2022/03/13 19:59:19;;;;;;;7.45;3.63;;;;;;;20.31;28.06;100372.56;12485670;22;65606;-73
2022/03/13 20:04:11;;;;;;;4.30;3.90;;;;;;;20.30;28.14;100375.66;12485364;22;66343;-73
2022/03/13 20:09:03;;;;;;;4.55;3.67;;;;;;;20.27;28.13;100379.84;12486078;22;66188;-74
2022/03/13 20:13:57;;;;;;;5.35;4.10;;;;;;;20.29;28.23;100383.09;12482011;22;66297;-74
2022/03/13 20:18:52;;;;;;;4.57;3.70;;;;;;;20.31;28.27;100388.25;12466355;22;64689;-72
2022/03/13 20:23:44;;;;;;;6.40;3.95;;;;;;;20.33;28.17;100394.28;12484024;22;66034;-74
2022/03/13 20:28:58;;;;;;;4.63;3.92;;;;;;;20.32;28.29;100407.22;12481896;22;66698;-73
2022/03/13 20:33:51;;;;;;;6.82;3.97;;;;;;;20.31;28.31;100404.78;12455363;22;65517;-73
2022/03/13 20:38:52;;;;;;;5.53;4.10;;;;;;;20.32;28.25;100409.97;12482459;22;66261;-73
2022/03/13 20:43:44;;;;;;;6.43;3.92;;;;;;;20.33;28.33;100411.66;12481011;22;65440;-74
2022/03/13 20:48:39;;;;;;;4.70;3.75;;;;;;;20.32;28.30;100420.19;12483317;22;66329;-74
2022/03/13 20:53:32;;;;;;;5.75;3.72;;;;;;;20.35;28.42;100422.34;12479694;22;66683;-73
2022/03/13 20:58:24;;;;;;;5.43;3.85;;;;;;;20.31;28.51;100433.13;12455143;22;65439;-73
2022/03/13 21:03:16;;;;;;;5.65;3.95;;;;;;;20.34;28.39;100434.50;12484984;22;66344;-73
2022/03/13 21:08:10;;;;;;;3.83;3.40;;;;;;;20.30;28.49;100441.72;12482879;22;66202;-73
